Terminal Aerodrome Forecast
Issued by NWS

Home | Current Version | Previous Version | Text Only | Print | Product List | Glossary On
Versions: 1 2 3 4 5 6 7 8 9 10 11 12 13 14
000
FTUS45 KRIW 191731
TAFCPR
TAF
KCPR 191731Z 1918/2018 03013KT P6SM SCT015 OVC020
     FM192300 06011KT P6SM VCSH SCT023 BKN035
     FM200400 08007KT P6SM SCT040 BKN070
     FM201500 16012KT P6SM FEW060=

USA.gov is the U.S. government's official web portal to all federal, state and local government web resources and services.